Flight Track Log - Related Links

Times and Time Zones

All times are in EDT time to prevent confusion due to time zone crossing. See the FLG3862 flight status page for this flight to view local times or setup timezone preferences in your user account.

Time Position Orientation Groundspeed Altitude Reporting Facility
EDT Latitude Longitude Course Direction KTS MPH feet Rate Location/Type
Sat 12:41:29 PM 44.4725 -73.3331 256° West 278 320 6,600  Level Boston Center
Sat 12:42:00 PM 44.3965 -73.5609 253° West  Level FlightAware Approximate
Sat 12:42:29 PM 44.4547 -73.4522 258° West 296 341 9,400  Level Boston Center
Sat 12:43:00 PM 44.3675 -73.6961 253° West  Level FlightAware Approximate
Sat 12:43:29 PM 44.4328 -73.5739 256° West 311 358 11,200  Level Boston Center
Sat 12:44:00 PM 44.3475 -73.8343 259° West  Level FlightAware Approximate
Sat 12:44:29 PM 44.4106 -73.7100 257° West 340 391 12,400  Level Boston Center
Sat 12:45:00 PM 44.3262 -73.9721 256° West  Level FlightAware Approximate
Sat 12:45:29 PM 44.3839 -73.8547 256° West 370 426 13,700  Level Boston Center
Sat 12:46:00 PM 44.3011 -74.1086 256° West  Level FlightAware Approximate
Sat 12:46:29 PM 44.3569 -73.9964 255° West 381 438 15,300  Level Boston Center
Sat 12:47:29 PM 44.3278 -74.1436 255° West 387 445 16,300 1,000 Climbing Boston Center
Sat 12:48:29 PM 44.3006 -74.2936 256° West 394 453 17,300 950 Climbing Boston Center
Sat 12:49:29 PM 44.2711 -74.4436 255° West 400 460 18,200 950 Climbing Boston Center
Sat 12:50:29 PM 44.2411 -74.5989 255° West 407 468 19,200 1,000 Climbing Boston Center
Sat 12:51:29 PM 44.2131 -74.7544 256° West 412 474 20,200 1,000 Climbing Boston Center
Sat 12:52:29 PM 44.1847 -74.9097 256° West 412 474 21,200 1,000 Climbing Boston Center
Sat 12:53:29 PM 44.1564 -75.0619 256° West 412 474 22,200 909 Climbing Boston Center
Sat 12:54:41 PM 44.1258 -75.2139 254° West 412 474 23,200 864 Climbing Boston Center
Sat 12:55:41 PM 44.1044 -75.4039 261° West 412 474 24,100 750 Climbing Boston Center
Sat 12:56:41 PM 44.0978 -75.5683 267° West 412 474 24,700 700 Climbing Boston Center
Sat 12:57:41 PM 44.0889 -75.7383 266° West 434 499 25,500 800 Climbing Boston Center
Sat 12:58:41 PM 44.0797 -75.9083 266° West 441 507 26,300 800 Climbing Boston Center
Sat 12:59:41 PM 44.0725 -76.0756 267° West 441 507 27,100 727 Climbing Boston Center
Sat 01:00:53 PM 44.0631 -76.2428 266° West 441 507 27,900 409 Climbing Boston Center
Sat 01:01:53 PM 44.0497 -76.4472 265° West 441 507 28,000 32 Climbing Boston Center
Sat 01:04:03 PM 44.0167 -76.8000 263° West 460 529 28,000  Level Toronto Center
Sat 01:05:03 PM 44.0000 -76.9667 262° West 460 529 28,000  Level Toronto Center
Sat 01:06:03 PM 43.9833 -77.1500 263° West 460 529 28,000  Level Toronto Center
Sat 01:07:03 PM 43.9667 -77.3333 263° West 450 518 28,000  Level Toronto Center
Sat 01:08:03 PM 43.9667 -77.5000 270° West 450 518 28,000  Level Toronto Center
Sat 01:09:03 PM 43.9000 -77.6667 241° Southwest 440 506 28,000  Level Toronto Center
Sat 01:10:03 PM 43.8500 -77.8000 243° Southwest 450 518 28,000  Level Toronto Center
Sat 01:11:03 PM 43.8000 -77.9500 245° Southwest 450 518 28,000  Level Toronto Center
Sat 01:12:03 PM 43.7333 -78.1167 241° Southwest 450 518 28,000  Level Toronto Center
Sat 01:13:03 PM 43.6833 -78.2667 245° Southwest 450 518 28,000  Level Toronto Center
Sat 01:14:03 PM 43.6167 -78.4333 241° Southwest 460 529 28,000  Level Toronto Center
Sat 01:14:59 PM 43.5911 -78.5828 257° West 455 524 28,000  Level Cleveland Center
Sat 01:15:59 PM 43.5375 -78.7364 244° Southwest 455 524 28,000  Level Cleveland Center
Sat 01:17:03 PM 43.4500 -78.9000 234° Southwest 460 529 28,000  Level Toronto Center
Sat 01:18:03 PM 43.4000 -79.0667 248° West 460 529 28,000  Level Toronto Center
Sat 01:19:03 PM 43.3333 -79.2167 239° Southwest 460 529 28,000  Level Toronto Center
Sat 01:20:03 PM 43.2833 -79.3500 243° Southwest 460 529 28,000  Level Toronto Center
Sat 01:21:03 PM 43.2167 -79.5167 241° Southwest 460 529 28,000  Level Toronto Center
Sat 01:22:03 PM 43.1667 -79.6833 248° West 460 529 28,000  Level Toronto Center
Sat 01:23:03 PM 43.1000 -79.8333 239° Southwest 450 518 28,000 -450 Level Toronto Center
Sat 01:24:03 PM 43.0500 -79.9833 246° West 450 518 27,100 -1,300 Descending Toronto Center
Sat 01:25:03 PM 42.9833 -80.1333 239° Southwest 470 541 25,400 -1,500 Descending Toronto Center
Sat 01:26:03 PM 42.9333 -80.3000 248° West 470 541 24,100 -1,200 Descending Toronto Center
Sat 01:27:03 PM 42.8667 -80.4500 239° Southwest 470 541 23,000 -717 Descending Toronto Center
Sat 01:27:35 PM 42.8417 -80.5519 252° West 477 549 23,000  Level Cleveland Center
Sat 01:28:35 PM 42.7831 -80.6992 242° Southwest 467 537 23,000  Level Cleveland Center
Sat 01:29:35 PM 42.7244 -80.8489 242° Southwest 458 527 23,000  Level Cleveland Center
Sat 01:30:35 PM 42.6928 -81.0011 254° West 438 504 23,000  Level Cleveland Center
Sat 01:31:35 PM 42.6756 -81.1592 262° West 420 483 23,000  Level Cleveland Center
Sat 01:32:35 PM 42.6600 -81.3144 262° West 415 478 23,000 -500 Level Cleveland Center
Sat 01:33:35 PM 42.6403 -81.4694 260° West 409 471 22,000 -1,450 Descending Cleveland Center
Sat 01:34:35 PM 42.6244 -81.6244 262° West 419 482 20,100 -1,850 Descending Cleveland Center
Sat 01:35:35 PM 42.6042 -81.7792 260° West 425 489 18,300 -1,550 Descending Cleveland Center
Sat 01:36:35 PM 42.5836 -81.9339 260° West 420 483 17,000 -1,550 Descending Cleveland Center
Sat 01:37:35 PM 42.5672 -82.0800 261° West 409 471 15,200 -1,857 Descending Cleveland Center
Sat 01:38:41 PM 42.5483 -82.2375 261° West 389 448 13,100 -1,667 Descending Cleveland Center
Sat 01:39:23 PM 42.5342 -82.3442 260° West 392 451 12,200 -641 Descending Cleveland Center
Sat 01:40:24 PM 42.5175 -82.4817 261° West 367 422 12,000 -98 Descending Cleveland Center
Sat 01:41:25 PM 42.4861 -82.6103 252° West 372 428 12,000 -541 Level Cleveland Center
Sat 01:42:26 PM 42.4422 -82.7356 245° Southwest 358 412 10,900 -1,339 Descending Cleveland Center
Sat 01:43:26 PM 42.4089 -82.8414 247° West 269 310 9,300 -1,535 Descending Cleveland Center
Sat 01:44:35 PM 42.3919 -82.9503 258° West 290 334 7,600 -1,721 Descending Cleveland Center
Sat 01:45:35 PM 42.3839 -83.0456 264° West 269 310 5,600 -1,800 Descending Cleveland Center
Sat 01:46:35 PM 42.3714 -83.1381 260° West 242 278 4,000 -1,600 Descending Cleveland Center
Sat 01:46:35 PM 42.3714 -83.1381 260° West 258 297 4,000 -800 Level Cleveland Center
Sat 01:47:35 PM 42.3428 -83.2069 241° Southwest 233 268 3,200 -800 Descending Cleveland Center

Login

Don't have an account? Register now (free) for customized features, flight alerts, and more!